Yarmouth, Maine
Current Conditions -  °F | °C
As of 8:51 PM on Thursday 20 Nov 2014 (Local Time) from KPWM Reporting Station
Overcast Overcast  
Wind Chill: 27°   Ceiling: 10000
Heat Index: 34°   Visibility: 10mi
Dew Point: 13°   Wind: 8mph
Humidity: 42%   Direction: 250°WSW
Pressure: 29.85"   Gusts: NA
Location:  43.8°N, 70.19°W
Report Text: KPWM 210151Z 25007KT 10SM OVC100 01/M11 A2985 RMK AO2 SLP108 T00111106
Loading
Personal Weather Stations






























Interactive Weather Map New forecast layout! Learn more

10-Day Weather Forecast

Advertisements
Track Severe Weather on mobile